createdAt,value
2023-01-12T00:00:44.602Z,71.23
2023-01-12T00:03:14.931Z,71.33
2023-01-12T00:06:12.082Z,71.19
2023-01-12T00:08:42.538Z,71.21
2023-01-12T00:11:12.707Z,71.13
2023-01-12T00:13:42.943Z,71.30
2023-01-12T00:16:43.308Z,71.32
2023-01-12T00:19:21.790Z,71.10
2023-01-12T00:21:59.673Z,71.28
2023-01-12T00:24:38.377Z,71.38
2023-01-12T00:27:10.913Z,71.37
2023-01-12T00:29:41.426Z,71.52
2023-01-12T00:32:18.940Z,71.48
2023-01-12T00:34:49.553Z,71.47
2023-01-12T00:37:21.592Z,71.45
2023-01-12T00:40:01.947Z,71.45
2023-01-12T00:42:51.284Z,71.48
2023-01-12T00:45:24.412Z,71.28
2023-01-12T00:47:55.901Z,71.48
2023-01-12T00:50:26.090Z,71.50
2023-01-12T00:52:56.151Z,71.55
2023-01-12T00:55:27.484Z,71.59
2023-01-12T00:57:57.181Z,71.34
2023-01-12T01:00:27.478Z,71.81
2023-01-12T01:02:57.680Z,71.42
2023-01-12T01:05:28.193Z,71.37
2023-01-12T01:07:58.324Z,71.41
2023-01-12T01:10:28.630Z,71.34
2023-01-12T01:12:59.670Z,71.49
2023-01-12T01:15:30.337Z,71.44
2023-01-12T01:18:00.587Z,71.14
2023-01-12T01:20:32.673Z,71.12
2023-01-12T01:23:03.241Z,71.15
2023-01-12T01:25:33.448Z,71.30
2023-01-12T01:28:03.483Z,71.24
2023-01-12T01:30:33.550Z,71.21
2023-01-12T01:33:03.469Z,71.03
2023-01-12T01:35:33.529Z,71.09
2023-01-12T01:38:03.553Z,71.16
2023-01-12T01:40:34.588Z,71.08
2023-01-12T01:43:05.137Z,70.96
2023-01-12T01:45:35.405Z,71.00
2023-01-12T01:48:05.995Z,70.98
2023-01-12T01:50:40.205Z,70.84
2023-01-12T01:53:18.653Z,70.93
2023-01-12T01:55:55.623Z,70.87
2023-01-12T01:58:34.652Z,70.64
2023-01-12T02:01:04.812Z,70.76
2023-01-12T02:03:36.854Z,70.72
2023-01-12T02:06:09.149Z,70.54
2023-01-12T02:08:58.795Z,70.54
2023-01-12T02:11:48.206Z,70.52
2023-01-12T02:14:36.823Z,70.43
2023-01-12T02:17:18.736Z,70.42
2023-01-12T02:20:19.618Z,70.31
2023-01-12T02:22:56.007Z,70.24
2023-01-12T02:25:56.854Z,70.14
2023-01-12T02:28:38.901Z,70.38
2023-01-12T02:31:29.666Z,70.10
2023-01-12T02:34:22.409Z,70.00
2023-01-12T02:37:15.781Z,69.89
2023-01-12T02:40:08.001Z,69.89
2023-01-12T02:42:45.189Z,70.02
2023-01-12T02:46:01.519Z,69.79
2023-01-12T02:48:38.917Z,69.89
2023-01-12T02:51:09.036Z,69.77
2023-01-12T02:54:08.151Z,69.77
2023-01-12T02:56:46.651Z,69.78
2023-01-12T02:59:22.971Z,69.82
2023-01-12T03:01:57.020Z,69.72
2023-01-12T03:04:30.804Z,69.57
2023-01-12T03:07:01.964Z,69.70
2023-01-12T03:10:02.769Z,69.67
2023-01-12T03:12:41.270Z,69.41
2023-01-12T03:15:17.355Z,69.72
2023-01-12T03:18:02.209Z,69.45
2023-01-12T03:20:43.934Z,69.51
2023-01-12T03:23:24.382Z,69.41
2023-01-12T03:25:57.022Z,69.52
2023-01-12T03:28:34.739Z,69.44
2023-01-12T03:31:17.539Z,69.35
2023-01-12T03:33:48.329Z,69.37
2023-01-12T03:36:34.985Z,69.37
2023-01-12T03:39:17.551Z,69.21
2023-01-12T03:41:53.554Z,69.99
2023-01-12T03:44:33.724Z,69.53
2023-01-12T03:47:14.364Z,69.82
2023-01-12T03:49:58.356Z,70.08
2023-01-12T03:52:30.981Z,69.93
2023-01-12T03:55:02.689Z,69.86
2023-01-12T03:57:33.954Z,69.83
2023-01-12T04:00:06.889Z,70.05
2023-01-12T04:02:45.560Z,69.94
2023-01-12T04:05:17.940Z,70.06
2023-01-12T04:07:48.113Z,70.22
2023-01-12T04:10:18.618Z,69.83
2023-01-12T04:12:48.715Z,69.88
2023-01-12T04:15:19.634Z,70.18
2023-01-12T04:17:51.943Z,69.74
2023-01-12T04:20:22.714Z,69.72
2023-01-12T04:22:53.158Z,69.46
2023-01-12T04:25:25.089Z,69.75
2023-01-12T04:27:58.775Z,69.40
2023-01-12T04:30:30.103Z,69.86
2023-01-12T04:33:01.300Z,68.85
2023-01-12T04:35:31.391Z,69.47
2023-01-12T04:38:03.291Z,69.48
2023-01-12T04:40:33.714Z,69.43
2023-01-12T04:43:06.996Z,69.25
2023-01-12T04:45:41.376Z,69.57
2023-01-12T04:48:14.891Z,68.88
2023-01-12T04:50:46.759Z,69.13
2023-01-12T04:53:17.095Z,69.47
2023-01-12T04:55:47.580Z,69.65
2023-01-12T04:58:17.699Z,69.23
2023-01-12T05:00:47.659Z,68.82
2023-01-12T05:03:18.357Z,69.21
2023-01-12T05:05:48.789Z,69.02
2023-01-12T05:08:37.070Z,68.91
2023-01-12T05:11:07.501Z,68.74
2023-01-12T05:13:37.587Z,68.28
2023-01-12T05:16:18.213Z,68.43
2023-01-12T05:18:49.093Z,68.31
2023-01-12T05:21:24.716Z,68.25
2023-01-12T05:23:55.777Z,68.84
2023-01-12T05:26:25.986Z,68.52
2023-01-12T05:28:55.900Z,68.92
2023-01-12T05:31:26.061Z,68.99
2023-01-12T05:33:56.742Z,68.05
2023-01-12T05:36:26.903Z,68.79
2023-01-12T05:38:57.060Z,68.72
2023-01-12T05:41:27.630Z,68.81
2023-01-12T05:43:57.671Z,68.87
2023-01-12T05:46:33.506Z,68.12
2023-01-12T05:49:03.628Z,68.30
2023-01-12T05:51:34.872Z,68.22
2023-01-12T05:54:06.777Z,67.16
2023-01-12T05:56:38.793Z,68.19
2023-01-12T05:59:09.472Z,67.76
2023-01-12T06:01:40.858Z,67.03
2023-01-12T06:04:10.753Z,67.49
2023-01-12T06:06:41.097Z,67.33
2023-01-12T06:09:11.659Z,68.23
2023-01-12T06:12:00.165Z,67.97
2023-01-12T06:14:30.379Z,67.58
2023-01-12T06:17:00.558Z,67.77
2023-01-12T06:19:30.742Z,68.19
2023-01-12T06:22:03.975Z,68.04
2023-01-12T06:24:34.687Z,67.83
2023-01-12T06:27:04.930Z,67.09
2023-01-12T06:29:35.073Z,67.65
2023-01-12T06:32:05.105Z,67.51
2023-01-12T06:34:37.556Z,67.28
2023-01-12T06:37:09.467Z,67.30
2023-01-12T06:39:39.609Z,67.18
2023-01-12T06:42:28.762Z,66.90
2023-01-12T06:45:00.220Z,67.18
2023-01-12T06:47:31.112Z,66.75
2023-01-12T06:50:02.894Z,66.58
2023-01-12T06:52:33.805Z,66.87
2023-01-12T06:55:03.901Z,67.50
2023-01-12T06:57:33.900Z,67.57
2023-01-12T07:00:04.615Z,67.35
2023-01-12T07:02:34.883Z,67.04
2023-01-12T07:05:05.045Z,67.42
2023-01-12T07:07:35.313Z,67.20
2023-01-12T07:10:08.685Z,66.62
2023-01-12T07:12:38.979Z,66.58
2023-01-12T07:15:10.049Z,66.70
2023-01-12T07:17:40.657Z,66.66
2023-01-12T07:20:11.522Z,67.00
2023-01-12T07:22:41.733Z,66.57
2023-01-12T07:25:12.671Z,66.56
2023-01-12T07:27:54.492Z,66.51
2023-01-12T07:30:25.576Z,66.68
2023-01-12T07:32:56.327Z,66.16
2023-01-12T07:35:27.359Z,66.62
2023-01-12T07:37:57.634Z,66.62
2023-01-12T07:40:27.861Z,66.88
2023-01-12T07:43:25.542Z,66.68
2023-01-12T07:45:58.535Z,66.53
2023-01-12T07:48:31.683Z,66.89
2023-01-12T07:51:02.120Z,66.86
2023-01-12T07:53:32.248Z,66.70
2023-01-12T07:56:02.719Z,66.37
2023-01-12T07:58:33.535Z,66.44
2023-01-12T08:01:04.629Z,66.55
2023-01-12T08:03:34.822Z,66.48
2023-01-12T08:06:05.119Z,66.19
2023-01-12T08:08:35.546Z,66.43
2023-01-12T08:11:09.239Z,66.21
2023-01-12T08:13:40.889Z,66.25
2023-01-12T08:16:21.055Z,66.45
2023-01-12T08:18:55.974Z,66.25
2023-01-12T08:21:50.544Z,66.33
2023-01-12T08:24:25.250Z,66.40
2023-01-12T08:26:58.049Z,66.50
2023-01-12T08:29:35.102Z,66.72
2023-01-12T08:34:46.462Z,66.46
2023-01-12T08:37:20.383Z,66.47
2023-01-12T08:39:51.903Z,66.69
2023-01-12T08:42:26.251Z,66.28
2023-01-12T08:44:57.460Z,66.46
2023-01-12T08:47:30.403Z,66.17
2023-01-12T08:50:02.484Z,66.21
2023-01-12T08:52:34.694Z,66.25
2023-01-12T08:55:05.171Z,66.21
2023-01-12T08:57:36.052Z,66.05
2023-01-12T09:00:06.780Z,66.15
2023-01-12T09:02:37.166Z,66.32
2023-01-12T09:05:08.021Z,66.22
2023-01-12T09:07:38.602Z,66.72
2023-01-12T09:10:10.433Z,66.52
2023-01-12T09:12:40.632Z,66.31
2023-01-12T09:15:11.178Z,66.54
2023-01-12T09:17:41.787Z,66.55
2023-01-12T09:20:12.570Z,66.39
2023-01-12T09:22:42.896Z,66.41
2023-01-12T09:25:12.903Z,66.40
2023-01-12T09:27:42.879Z,66.44
2023-01-12T09:30:13.883Z,66.43
2023-01-12T09:32:44.293Z,66.17
2023-01-12T09:35:14.489Z,66.42
2023-01-12T09:37:47.130Z,66.15
2023-01-12T09:40:17.997Z,66.40
2023-01-12T13:24:18.427Z,69.39
2023-01-12T13:26:54.642Z,69.57
2023-01-12T13:29:31.484Z,69.45
2023-01-12T13:32:22.045Z,69.47
2023-01-12T13:34:56.071Z,69.47
2023-01-12T13:37:52.017Z,69.30
2023-01-12T13:40:28.938Z,69.05
2023-01-12T13:43:18.642Z,69.34
2023-01-12T13:45:59.890Z,69.27
2023-01-12T13:48:31.647Z,68.94
2023-01-12T13:51:15.333Z,68.74
2023-01-12T13:53:45.988Z,68.46
2023-01-12T13:56:26.614Z,68.50
2023-01-12T13:59:10.458Z,68.59
2023-01-12T14:01:42.902Z,68.12
2023-01-12T14:04:23.822Z,67.94
2023-01-12T14:07:18.243Z,68.14
2023-01-12T14:10:06.465Z,68.10
2023-01-12T14:13:04.186Z,68.02
2023-01-12T14:16:01.392Z,68.10
2023-01-12T14:18:44.629Z,67.74
2023-01-12T14:21:35.141Z,67.72
2023-01-12T14:24:21.042Z,67.70
2023-01-12T14:26:52.167Z,68.02
2023-01-12T14:29:22.676Z,67.87
2023-01-12T14:31:56.553Z,67.44
2023-01-12T14:34:39.329Z,67.56
2023-01-12T14:37:32.352Z,67.41
2023-01-12T14:40:03.116Z,67.39
2023-01-12T14:42:53.241Z,67.55
2023-01-12T14:45:45.938Z,67.31
2023-01-12T14:48:33.080Z,67.72
2023-01-12T14:51:39.266Z,68.23
2023-01-12T14:54:09.301Z,68.06
2023-01-12T14:56:50.539Z,68.46
2023-01-12T14:59:26.193Z,68.51
2023-01-12T15:02:10.601Z,68.28
2023-01-12T15:04:51.631Z,68.12
2023-01-12T15:07:24.173Z,67.96
2023-01-12T15:10:00.915Z,68.30
2023-01-12T15:12:34.168Z,68.17
2023-01-12T15:15:55.358Z,68.59
2023-01-12T15:18:54.928Z,68.43
2023-01-12T15:21:46.078Z,68.63
2023-01-12T15:24:42.963Z,68.77
2023-01-12T15:27:18.772Z,68.99
2023-01-12T15:29:49.430Z,68.91
2023-01-12T15:32:55.837Z,69.08
2023-01-12T15:35:29.368Z,68.60
2023-01-12T15:38:01.340Z,68.81
2023-01-12T15:40:32.659Z,68.91
2023-01-12T15:43:05.429Z,68.76
2023-01-12T15:45:42.666Z,69.13
2023-01-12T15:48:13.834Z,69.01
2023-01-12T15:50:48.906Z,69.00
2023-01-12T15:53:22.624Z,69.03
2023-01-12T15:55:55.718Z,68.68
2023-01-12T15:58:26.210Z,68.79
2023-01-12T16:00:56.653Z,68.84
2023-01-12T16:03:57.183Z,69.26
2023-01-12T16:06:24.040Z,68.76
2023-01-12T16:08:54.848Z,69.59
2023-01-12T16:11:26.821Z,68.72
2023-01-12T16:13:58.062Z,68.94
2023-01-12T16:16:28.904Z,69.04
2023-01-12T16:19:03.645Z,68.66
2023-01-12T16:21:34.745Z,68.83
2023-01-12T16:24:05.369Z,68.92
2023-01-12T16:26:35.842Z,68.81
2023-01-12T16:29:08.778Z,68.83
2023-01-12T16:31:39.625Z,69.08
2023-01-12T16:34:09.986Z,68.96
2023-01-12T16:36:41.910Z,68.80
2023-01-12T16:39:15.616Z,68.72
2023-01-12T16:41:45.904Z,68.85
2023-01-12T16:44:16.256Z,68.94
2023-01-12T16:46:46.566Z,68.89
2023-01-12T16:49:17.014Z,70.50
2023-01-12T16:51:48.649Z,69.76
2023-01-12T16:54:19.219Z,70.17
2023-01-12T16:56:49.948Z,69.73
2023-01-12T16:59:20.130Z,70.13
2023-01-12T17:01:50.685Z,70.22
2023-01-12T17:04:25.646Z,70.23
2023-01-12T17:06:56.262Z,70.19
2023-01-12T17:09:26.580Z,70.37
2023-01-12T17:11:57.454Z,70.85
2023-01-12T17:14:29.901Z,70.39
2023-01-12T17:17:04.671Z,70.46
2023-01-12T17:19:36.608Z,70.43
2023-01-12T17:22:10.044Z,70.39
2023-01-12T17:24:45.137Z,70.44
2023-01-12T17:27:16.272Z,70.34
2023-01-12T17:29:46.869Z,70.79
2023-01-12T17:32:17.857Z,70.42
2023-01-12T17:34:51.843Z,70.17
2023-01-12T17:37:22.177Z,70.57
2023-01-12T17:39:52.720Z,70.81
2023-01-12T17:42:41.689Z,71.06
2023-01-12T17:45:12.708Z,70.73
2023-01-12T17:47:42.987Z,71.38
2023-01-12T17:50:14.333Z,70.78
2023-01-12T17:52:44.597Z,71.29
2023-01-12T17:55:15.099Z,71.14
2023-01-12T17:57:46.125Z,71.21
2023-01-12T18:00:18.569Z,71.29
2023-01-12T18:02:49.016Z,71.27
2023-01-12T18:05:19.354Z,71.41
2023-01-12T18:07:49.500Z,71.53
2023-01-12T18:10:20.000Z,71.79
2023-01-12T18:12:50.305Z,71.61
2023-01-12T18:15:20.746Z,71.27
2023-01-12T18:17:51.159Z,71.64
2023-01-12T18:20:21.449Z,71.86
2023-01-12T18:22:52.273Z,71.71
2023-01-12T18:25:22.840Z,71.79
2023-01-12T18:27:53.204Z,71.95
2023-01-12T18:30:23.478Z,71.69
2023-01-12T18:32:53.698Z,72.05
2023-01-12T18:35:24.040Z,72.03
2023-01-12T18:37:54.351Z,71.95
2023-01-12T18:40:24.465Z,72.09
2023-01-12T18:42:56.710Z,71.94
2023-01-12T18:45:27.575Z,72.01
2023-01-12T18:48:16.281Z,72.30
2023-01-12T18:51:04.840Z,72.15
2023-01-12T18:53:36.234Z,72.21
2023-01-12T18:56:08.192Z,72.12
2023-01-12T18:58:39.457Z,72.51
2023-01-12T19:01:15.088Z,72.12
2023-01-12T19:03:45.719Z,72.44
2023-01-12T19:06:46.756Z,72.42
2023-01-12T19:09:46.269Z,72.58
2023-01-12T19:12:16.542Z,72.46
2023-01-12T19:15:07.207Z,72.80
2023-01-12T19:17:38.229Z,72.64
2023-01-12T19:20:11.867Z,73.08
2023-01-12T19:23:00.773Z,72.95
2023-01-12T19:25:49.675Z,73.02
2023-01-12T19:28:38.462Z,73.20
2023-01-12T19:31:13.277Z,72.85
2023-01-12T19:33:45.063Z,72.92
2023-01-12T19:36:18.173Z,72.93
2023-01-12T19:38:51.883Z,72.94
2023-01-12T19:41:40.490Z,73.18
2023-01-12T19:44:10.906Z,73.04
2023-01-12T19:46:43.999Z,73.06
2023-01-12T19:49:15.597Z,73.15
2023-01-12T19:51:48.276Z,73.05
2023-01-12T19:54:18.622Z,72.89
2023-01-12T19:56:49.740Z,73.19
2023-01-12T19:59:20.584Z,73.04
2023-01-12T20:01:52.917Z,73.01
2023-01-12T20:04:23.221Z,73.14
2023-01-12T20:06:55.414Z,72.95
2023-01-12T20:09:26.140Z,73.29
2023-01-12T20:11:57.457Z,73.13
2023-01-12T20:14:27.828Z,73.36
2023-01-12T20:16:58.463Z,73.11
2023-01-12T20:19:28.857Z,73.03
2023-01-12T20:21:59.255Z,73.35
2023-01-12T20:24:29.636Z,73.20
2023-01-12T20:27:00.045Z,73.34
2023-01-12T20:29:30.364Z,73.21
2023-01-12T20:32:00.709Z,73.39
2023-01-12T20:34:31.277Z,73.16
2023-01-12T20:37:01.629Z,73.35
2023-01-12T20:39:33.006Z,73.28
2023-01-12T20:42:03.886Z,73.20
2023-01-12T20:44:34.096Z,73.32
2023-01-12T20:47:04.285Z,73.10
2023-01-12T20:49:34.830Z,73.34
2023-01-12T20:52:05.130Z,73.19
2023-01-12T20:54:35.324Z,73.06
2023-01-12T20:57:05.491Z,73.38
2023-01-12T20:59:35.562Z,73.18
2023-01-12T21:02:06.208Z,73.44
2023-01-12T21:04:36.848Z,73.28
2023-01-12T21:07:07.001Z,73.23
2023-01-12T21:09:37.208Z,73.41
2023-01-12T21:12:07.746Z,73.26
2023-01-12T21:14:40.506Z,73.26
2023-01-12T21:17:10.604Z,73.33
2023-01-12T21:19:41.008Z,73.18
2023-01-12T21:22:11.192Z,73.25
2023-01-12T21:24:41.120Z,73.36
2023-01-12T21:27:11.203Z,72.91
2023-01-12T21:29:41.218Z,73.14
2023-01-12T21:32:11.175Z,73.23
2023-01-12T21:34:41.221Z,72.88
2023-01-12T21:37:11.216Z,73.19
2023-01-12T21:39:41.245Z,73.06
2023-01-12T21:42:30.490Z,73.14
2023-01-12T21:45:00.628Z,73.29
2023-01-12T21:47:30.645Z,73.31
2023-01-12T21:50:00.797Z,73.26
2023-01-12T21:52:35.135Z,73.25
2023-01-12T21:55:05.320Z,73.27
2023-01-12T21:57:35.452Z,73.46
2023-01-12T22:00:07.950Z,73.38
2023-01-12T22:02:41.866Z,73.33
2023-01-12T22:05:13.310Z,73.19
2023-01-12T22:07:43.412Z,73.57
2023-01-12T22:10:23.196Z,73.52
2023-01-12T22:12:59.107Z,73.65
2023-01-12T22:15:31.539Z,73.70
2023-01-12T22:18:02.904Z,73.47
2023-01-12T22:20:34.012Z,73.72
2023-01-12T22:23:04.212Z,73.63
2023-01-12T22:25:36.338Z,73.36
2023-01-12T22:28:07.433Z,73.78
2023-01-12T22:30:37.374Z,73.79
2023-01-12T22:33:07.746Z,73.78
2023-01-12T22:35:38.010Z,73.93
2023-01-12T22:38:08.265Z,73.99
2023-01-12T22:40:38.415Z,74.28
2023-01-12T22:43:26.829Z,74.22
2023-01-12T22:46:00.101Z,74.17
2023-01-12T22:48:30.982Z,74.10
2023-01-12T22:51:03.050Z,74.38
2023-01-12T22:53:33.367Z,74.17
2023-01-12T22:56:06.104Z,74.04
2023-01-12T22:58:36.323Z,74.18
2023-01-12T23:03:26.284Z,74.14
2023-01-12T23:05:58.589Z,74.32
2023-01-12T23:08:28.854Z,74.23
2023-01-12T23:11:11.242Z,74.46
2023-01-12T23:13:43.063Z,74.76
2023-01-12T23:16:15.690Z,74.71
2023-01-12T23:18:47.595Z,74.71
2023-01-12T23:21:24.165Z,74.94
2023-01-12T23:24:01.396Z,74.83
2023-01-12T23:26:35.768Z,74.82
2023-01-12T23:29:06.099Z,74.66
2023-01-12T23:31:36.824Z,74.40
2023-01-12T23:34:07.080Z,74.54
2023-01-12T23:36:38.173Z,74.58
2023-01-12T23:39:10.300Z,74.33
2023-01-12T23:41:41.768Z,74.33
2023-01-12T23:44:12.226Z,74.30
2023-01-12T23:46:45.235Z,74.20
2023-01-12T23:49:15.417Z,74.20
2023-01-12T23:51:45.484Z,74.44
2023-01-12T23:54:20.367Z,74.41
2023-01-12T23:56:55.447Z,74.32
2023-01-12T23:59:25.689Z,74.18
